Cedaredge, Colorado
Current Conditions -  °F | °C
As of 9:55 PM on Sunday 21 Dec 2014 (Local Time) from KAJZ Reporting Station
Overcast Overcast  
Wind Chill: 34°   Ceiling: 700
Heat Index: 34°   Visibility: 7mi
Dew Point: 32°   Wind: 0mph
Humidity: 93%   Direction: NA
Pressure: 29.9"   Gusts: NA
Location:  38.9°N, 107.93°W
Report Text: KAJZ 220455Z AUTO 00000KT 7SM BKN007 BKN010 OVC060 01/00 A2990 RMK AO2 T00100000
Loading
Personal Weather Stations






























Interactive Weather Map New forecast layout! Learn more

10-Day Weather Forecast

Advertisements
Track Severe Weather on mobile